Time;durP1;ratioP1;P1;durP2;ratioP2;P2;SDS_P1;SDS_P2;PMS_P1;PMS_P2;Temp;Humidity;BMP_temperature;BMP_pressure;BME280_temperature;BME280_humidity;BME280_pressure;Samples;Min_cycle;Max_cycle;Signal;HPM_P1;HPM_P2
2022/04/28 00:00:42;;;;;;;7.75;3.53;;;;;;;;;;4800233;29;20489;-88
2022/04/28 00:03:09;;;;;;;5.75;3.40;;;;;;;;;;4800423;29;20034;-81
2022/04/28 00:05:35;;;;;;;7.57;3.45;;;;;;;;;;4786842;29;20022;-79
2022/04/28 00:08:01;;;;;;;6.93;3.70;;;;;;;;;;4799359;29;20042;-86
2022/04/28 00:10:26;;;;;;;5.70;3.53;;;;;;;;;;4786640;29;20026;-87
2022/04/28 00:12:52;;;;;;;5.70;3.65;;;;;;;;;;4784826;29;20026;-86
2022/04/28 00:15:18;;;;;;;7.00;3.45;;;;;;;;;;4785199;29;20062;-81
2022/04/28 00:17:43;;;;;;;6.07;3.60;;;;;;;;;;4780589;29;20496;-87
2022/04/28 00:20:10;;;;;;;5.65;3.35;;;;;;;;;;4784446;29;20046;-85
2022/04/28 00:22:35;;;;;;;7.07;3.42;;;;;;;;;;4799438;29;20489;-88
2022/04/28 00:25:01;;;;;;;5.57;3.47;;;;;;;;;;4801396;29;20067;-79
2022/04/28 00:27:26;;;;;;;5.50;3.72;;;;;;;;;;4781366;29;20031;-87
2022/04/28 00:29:52;;;;;;;4.45;3.15;;;;;;;;;;4794677;29;20042;-81
2022/04/28 00:32:17;;;;;;;5.85;3.33;;;;;;;;;;4798555;29;20051;-82
2022/04/28 00:34:43;;;;;;;5.95;3.05;;;;;;;;;;4785786;29;20060;-80
2022/04/28 00:37:09;;;;;;;7.15;3.97;;;;;;;;;;4796624;29;20130;-81
2022/04/28 00:39:36;;;;;;;7.60;3.90;;;;;;;;;;4787271;29;20049;-88
2022/04/28 00:42:01;;;;;;;6.40;3.40;;;;;;;;;;4782921;29;20049;-81
2022/04/28 00:44:27;;;;;;;6.18;3.60;;;;;;;;;;4798111;29;20386;-81
2022/04/28 00:46:52;;;;;;;5.43;3.50;;;;;;;;;;4806589;29;20022;-81
2022/04/28 00:52:01;;;;;;;7.00;3.72;;;;;;;;;;4806202;29;20118;-81
2022/04/28 00:54:28;;;;;;;6.95;3.65;;;;;;;;;;4801683;29;20134;-80
2022/04/28 00:56:54;;;;;;;6.93;3.80;;;;;;;;;;4786593;29;20023;-79
2022/04/28 00:59:20;;;;;;;5.65;3.30;;;;;;;;;;4798549;29;20082;-81
2022/04/28 01:01:46;;;;;;;5.57;3.30;;;;;;;;;;4785392;29;20030;-82
2022/04/28 01:04:11;;;;;;;5.55;3.50;;;;;;;;;;4802699;29;20045;-81
2022/04/28 01:06:39;;;;;;;7.55;3.72;;;;;;;;;;4801444;29;20022;-82
2022/04/28 01:09:04;;;;;;;5.00;3.42;;;;;;;;;;4776194;29;20038;-81
2022/04/28 01:11:31;;;;;;;5.63;3.20;;;;;;;;;;4784650;29;20539;-78
2022/04/28 01:13:56;;;;;;;7.57;3.90;;;;;;;;;;4787648;29;20033;-82
2022/04/28 01:16:22;;;;;;;8.65;3.78;;;;;;;;;;4783287;29;20026;-81
2022/04/28 01:18:47;;;;;;;6.13;3.42;;;;;;;;;;4787587;29;20041;-80
2022/04/28 01:21:12;;;;;;;6.10;3.38;;;;;;;;;;4800161;29;20516;-89
2022/04/28 01:23:38;;;;;;;7.50;3.70;;;;;;;;;;4782085;29;20041;-79
2022/04/28 01:26:03;;;;;;;5.03;3.35;;;;;;;;;;4784380;29;20027;-82
2022/04/28 01:28:33;;;;;;;6.90;3.85;;;;;;;;;;4797197;29;20034;-79
2022/04/28 01:31:03;;;;;;;5.90;3.45;;;;;;;;;;4799894;29;20102;-86
2022/04/28 01:33:29;;;;;;;5.47;3.33;;;;;;;;;;4782366;29;20034;-82
2022/04/28 01:35:54;;;;;;;7.10;3.35;;;;;;;;;;4779631;29;20038;-85
2022/04/28 01:38:20;;;;;;;6.22;3.28;;;;;;;;;;4801867;29;20154;-80
2022/04/28 01:40:45;;;;;;;4.32;3.28;;;;;;;;;;4781332;29;20034;-81
2022/04/28 01:43:11;;;;;;;6.13;3.38;;;;;;;;;;4799079;29;21510;-81
2022/04/28 01:45:36;;;;;;;7.32;3.85;;;;;;;;;;4798975;29;20113;-81
2022/04/28 01:48:01;;;;;;;9.27;3.80;;;;;;;;;;4781252;29;20485;-82
2022/04/28 01:50:27;;;;;;;5.97;3.55;;;;;;;;;;4803902;29;20122;-81
2022/04/28 01:55:36;;;;;;;7.43;3.65;;;;;;;;;;4804056;29;20056;-78
2022/04/28 01:58:01;;;;;;;5.68;3.45;;;;;;;;;;4797863;29;20042;-81
2022/04/28 02:00:27;;;;;;;7.63;4.07;;;;;;;;;;4801559;29;20397;-87
2022/04/28 02:02:52;;;;;;;6.13;3.78;;;;;;;;;;4795951;29;20478;-79
2022/04/28 02:05:17;;;;;;;7.43;3.78;;;;;;;;;;4802000;29;20379;-82
2022/04/28 02:07:44;;;;;;;6.65;3.90;;;;;;;;;;4785753;29;20062;-80
2022/04/28 02:10:10;;;;;;;7.50;4.03;;;;;;;;;;4801124;29;20038;-82
2022/04/28 02:12:35;;;;;;;6.20;3.65;;;;;;;;;;4798857;29;20039;-80
2022/04/28 02:15:00;;;;;;;7.65;3.55;;;;;;;;;;4800778;29;20622;-86
2022/04/28 02:17:27;;;;;;;8.98;3.85;;;;;;;;;;4806678;29;20042;-88
2022/04/28 02:19:53;;;;;;;7.70;4.10;;;;;;;;;;4807255;29;20031;-88
2022/04/28 02:22:20;;;;;;;7.47;4.00;;;;;;;;;;4803031;29;20039;-80
2022/04/28 02:24:46;;;;;;;9.07;4.00;;;;;;;;;;4799095;29;20550;-79
2022/04/28 02:27:11;;;;;;;5.95;3.88;;;;;;;;;;4779343;29;20394;-79
2022/04/28 02:29:37;;;;;;;7.63;4.03;;;;;;;;;;4799244;29;20027;-80
2022/04/28 02:32:03;;;;;;;7.93;3.63;;;;;;;;;;4793966;29;20030;-81
2022/04/28 02:34:29;;;;;;;8.90;3.85;;;;;;;;;;4798727;29;20046;-81
2022/04/28 02:36:55;;;;;;;8.68;3.85;;;;;;;;;;4782073;29;20027;-81
2022/04/28 02:39:20;;;;;;;6.40;3.83;;;;;;;;;;4780551;29;20080;-78
2022/04/28 02:41:46;;;;;;;7.97;4.05;;;;;;;;;;4803680;29;20030;-81
2022/04/28 02:44:12;;;;;;;7.25;4.40;;;;;;;;;;4781473;29;20504;-81
2022/04/28 02:46:39;;;;;;;9.07;3.70;;;;;;;;;;4804748;29;20061;-87
2022/04/28 02:49:04;;;;;;;8.10;4.30;;;;;;;;;;4799950;29;20046;-82
2022/04/28 02:51:30;;;;;;;7.20;3.95;;;;;;;;;;4781708;29;20030;-86
2022/04/28 02:53:56;;;;;;;7.05;4.00;;;;;;;;;;4795297;29;20027;-81
2022/04/28 02:56:21;;;;;;;5.88;3.80;;;;;;;;;;4806966;29;20046;-81
2022/04/28 02:58:47;;;;;;;9.68;4.30;;;;;;;;;;4799949;29;20549;-85
2022/04/28 03:01:12;;;;;;;6.65;4.05;;;;;;;;;;4780083;29;20047;-80
2022/04/28 03:03:37;;;;;;;7.55;3.97;;;;;;;;;;4802843;29;20046;-78
2022/04/28 03:11:31;;;;;;;7.18;4.55;;;;;;;;;;4799797;29;20057;-85
2022/04/28 03:13:56;;;;;;;9.65;4.32;;;;;;;;;;4805418;29;20617;-81
2022/04/28 03:16:22;;;;;;;9.60;4.57;;;;;;;;;;4779615;29;20147;-81
2022/04/28 03:18:48;;;;;;;8.10;4.38;;;;;;;;;;4804497;29;20026;-78
2022/04/28 03:21:14;;;;;;;7.38;4.13;;;;;;;;;;4802370;29;20035;-81
2022/04/28 03:23:39;;;;;;;6.15;3.90;;;;;;;;;;4811001;29;20023;-78
2022/04/28 03:26:05;;;;;;;8.32;3.72;;;;;;;;;;4788954;29;20053;-82
2022/04/28 03:28:35;;;;;;;8.77;4.20;;;;;;;;;;4795125;29;20027;-82
2022/04/28 03:31:05;;;;;;;7.57;4.40;;;;;;;;;;4810560;29;20412;-81
2022/04/28 03:33:31;;;;;;;5.57;3.90;;;;;;;;;;4804678;29;20039;-88
2022/04/28 03:35:56;;;;;;;9.35;4.25;;;;;;;;;;4801677;29;20095;-79
2022/04/28 03:38:22;;;;;;;8.48;4.53;;;;;;;;;;4786292;29;20130;-89
2022/04/28 03:40:47;;;;;;;9.85;4.50;;;;;;;;;;4805884;29;20058;-81
2022/04/28 03:43:12;;;;;;;7.85;4.30;;;;;;;;;;4808345;29;20033;-82
2022/04/28 03:45:38;;;;;;;6.88;4.45;;;;;;;;;;4800030;29;20475;-81
2022/04/28 03:48:08;;;;;;;6.85;3.75;;;;;;;;;;4784082;29;20520;-81
2022/04/28 03:50:33;;;;;;;7.07;4.45;;;;;;;;;;4782966;29;20039;-81
2022/04/28 03:52:59;;;;;;;6.47;3.97;;;;;;;;;;4809575;29;20038;-81
2022/04/28 03:55:25;;;;;;;7.47;4.30;;;;;;;;;;4807384;29;20513;-87
2022/04/28 03:57:51;;;;;;;9.25;4.03;;;;;;;;;;4800446;29;20031;-83
2022/04/28 04:00:17;;;;;;;6.80;4.25;;;;;;;;;;4788992;29;20419;-80
2022/04/28 04:02:42;;;;;;;7.30;4.20;;;;;;;;;;4809308;29;20034;-88
2022/04/28 04:05:09;;;;;;;6.68;3.88;;;;;;;;;;4805998;29;20019;-82
2022/04/28 04:07:38;;;;;;;9.52;4.65;;;;;;;;;;4801849;29;20430;-81
2022/04/28 04:10:07;;;;;;;6.22;4.35;;;;;;;;;;4795593;29;20057;-83
2022/04/28 04:12:33;;;;;;;5.90;3.72;;;;;;;;;;4806294;29;20456;-81
2022/04/28 04:14:58;;;;;;;8.48;4.47;;;;;;;;;;4803632;29;20129;-80
2022/04/28 04:17:24;;;;;;;5.75;4.05;;;;;;;;;;4801627;29;20057;-81
2022/04/28 04:19:49;;;;;;;7.80;4.30;;;;;;;;;;4801992;29;20023;-80
2022/04/28 04:22:15;;;;;;;8.95;4.65;;;;;;;;;;4802507;29;20034;-81
2022/04/28 04:24:41;;;;;;;9.18;4.57;;;;;;;;;;4801702;29;20026;-81
2022/04/28 04:27:07;;;;;;;8.75;4.65;;;;;;;;;;4786850;29;20031;-81
2022/04/28 04:29:32;;;;;;;8.48;4.25;;;;;;;;;;4785562;29;21020;-89
2022/04/28 04:34:41;;;;;;;6.65;4.18;;;;;;;;;;4806785;29;20512;-78
2022/04/28 04:37:06;;;;;;;8.15;4.28;;;;;;;;;;4788949;29;20034;-78
2022/04/28 04:39:32;;;;;;;10.48;4.65;;;;;;;;;;4804911;29;20059;-79
2022/04/28 04:41:57;;;;;;;7.00;4.90;;;;;;;;;;4799570;29;20039;-84
2022/04/28 04:44:22;;;;;;;9.48;5.22;;;;;;;;;;4786140;29;20041;-81
2022/04/28 04:46:48;;;;;;;8.88;4.95;;;;;;;;;;4781183;29;20118;-81
2022/04/28 04:49:13;;;;;;;6.32;4.10;;;;;;;;;;4799695;29;20034;-84
2022/04/28 04:51:39;;;;;;;7.68;4.43;;;;;;;;;;4800356;29;20113;-79
2022/04/28 04:54:04;;;;;;;6.95;4.38;;;;;;;;;;4804911;29;20068;-81
2022/04/28 04:56:29;;;;;;;8.77;4.85;;;;;;;;;;4787036;29;20047;-80
2022/04/28 04:58:55;;;;;;;11.45;4.68;;;;;;;;;;4786474;29;20022;-80
2022/04/28 05:01:20;;;;;;;7.60;4.57;;;;;;;;;;4801330;29;20043;-81
2022/04/28 05:03:45;;;;;;;10.30;5.07;;;;;;;;;;4785594;29;20451;-81
2022/04/28 05:06:11;;;;;;;10.07;4.40;;;;;;;;;;4806369;29;20095;-78
2022/04/28 05:08:36;;;;;;;8.82;4.50;;;;;;;;;;4782298;29;20405;-79
2022/04/28 05:11:02;;;;;;;10.90;5.32;;;;;;;;;;4783659;29;20110;-79
2022/04/28 05:13:27;;;;;;;8.40;4.68;;;;;;;;;;4799369;29;20073;-88
2022/04/28 05:15:53;;;;;;;10.27;4.93;;;;;;;;;;4805539;29;20062;-81
2022/04/28 05:18:18;;;;;;;7.90;4.47;;;;;;;;;;4786535;29;20034;-81
2022/04/28 05:20:44;;;;;;;8.52;3.85;;;;;;;;;;4798334;29;20066;-81
2022/04/28 05:23:09;;;;;;;9.18;4.78;;;;;;;;;;4785745;29;20062;-81
2022/04/28 05:25:34;;;;;;;9.27;4.70;;;;;;;;;;4796784;29;20482;-86
2022/04/28 05:28:00;;;;;;;9.50;4.57;;;;;;;;;;4806460;29;20026;-78
2022/04/28 05:30:25;;;;;;;8.95;4.68;;;;;;;;;;4785559;29;20139;-91
2022/04/28 05:32:50;;;;;;;9.18;4.93;;;;;;;;;;4800378;29;20298;-78
2022/04/28 05:35:16;;;;;;;9.50;4.80;;;;;;;;;;4798614;29;20035;-81
2022/04/28 05:37:41;;;;;;;8.00;5.05;;;;;;;;;;4790356;29;20125;-78
2022/04/28 05:40:08;;;;;;;7.65;4.68;;;;;;;;;;4785163;29;20451;-81
2022/04/28 05:48:02;;;;;;;10.00;5.22;;;;;;;;;;4802233;29;20512;-81
2022/04/28 05:50:27;;;;;;;7.38;4.20;;;;;;;;;;4795750;29;20110;-85
2022/04/28 05:52:53;;;;;;;8.15;4.60;;;;;;;;;;4790570;29;20379;-79
2022/04/28 05:55:18;;;;;;;9.57;4.60;;;;;;;;;;4799956;29;20042;-78
2022/04/28 05:57:43;;;;;;;10.05;5.15;;;;;;;;;;4784446;29;20529;-81
2022/04/28 06:00:09;;;;;;;9.23;4.82;;;;;;;;;;4801453;29;20095;-80
2022/04/28 06:02:35;;;;;;;10.10;4.70;;;;;;;;;;4800479;29;20030;-81
2022/04/28 06:05:01;;;;;;;8.65;4.63;;;;;;;;;;4786913;29;20118;-81
2022/04/28 06:07:26;;;;;;;8.68;5.18;;;;;;;;;;4783286;29;20553;-86
2022/04/28 06:09:52;;;;;;;8.07;4.75;;;;;;;;;;4787822;29;20033;-79
2022/04/28 06:12:17;;;;;;;7.75;4.32;;;;;;;;;;4797855;29;20034;-81
2022/04/28 06:14:43;;;;;;;9.50;4.97;;;;;;;;;;4801387;29;20089;-78
2022/04/28 06:17:09;;;;;;;8.43;4.97;;;;;;;;;;4796112;29;20145;-78
2022/04/28 06:19:34;;;;;;;10.20;5.00;;;;;;;;;;4784975;29;20114;-78
2022/04/28 06:21:59;;;;;;;9.82;4.80;;;;;;;;;;4797981;29;20075;-89
2022/04/28 06:24:25;;;;;;;8.88;4.78;;;;;;;;;;4807153;29;20027;-78
2022/04/28 06:26:51;;;;;;;8.63;4.47;;;;;;;;;;4785904;29;21976;-87
2022/04/28 06:29:16;;;;;;;12.40;4.82;;;;;;;;;;4786615;29;20111;-80
2022/04/28 06:31:42;;;;;;;9.70;5.07;;;;;;;;;;4786520;29;20459;-81
2022/04/28 06:34:07;;;;;;;8.07;5.20;;;;;;;;;;4797287;29;20038;-80
2022/04/28 06:36:34;;;;;;;7.90;4.55;;;;;;;;;;4799774;29;20039;-81
2022/04/28 06:39:02;;;;;;;8.65;4.68;;;;;;;;;;4792910;29;20124;-81
2022/04/28 06:41:27;;;;;;;11.98;5.38;;;;;;;;;;4768321;29;20031;-81
2022/04/28 06:43:52;;;;;;;8.95;4.63;;;;;;;;;;4758539;29;20050;-87
2022/04/28 06:46:18;;;;;;;10.00;4.50;;;;;;;;;;4787869;29;20118;-80
2022/04/28 06:48:43;;;;;;;9.25;4.35;;;;;;;;;;4773111;29;20079;-79
2022/04/28 06:51:08;;;;;;;10.52;4.25;;;;;;;;;;4767757;29;20031;-81
2022/04/28 06:53:34;;;;;;;10.07;4.47;;;;;;;;;;4781739;29;20054;-81
2022/04/28 06:55:59;;;;;;;9.00;4.43;;;;;;;;;;4768450;29;20035;-82
2022/04/28 06:58:25;;;;;;;9.77;4.22;;;;;;;;;;4777751;29;20122;-81
2022/04/28 07:00:50;;;;;;;9.77;4.38;;;;;;;;;;4797278;29;20035;-81
2022/04/28 07:03:16;;;;;;;8.73;4.55;;;;;;;;;;4790825;29;20517;-82
2022/04/28 07:05:41;;;;;;;12.02;4.45;;;;;;;;;;4796474;29;20054;-78
2022/04/28 07:08:07;;;;;;;8.25;4.03;;;;;;;;;;4773118;29;20478;-81
2022/04/28 07:10:33;;;;;;;9.93;4.13;;;;;;;;;;4791687;29;20056;-81
2022/04/28 07:12:58;;;;;;;8.52;4.47;;;;;;;;;;4784726;29;20026;-81
2022/04/28 07:15:24;;;;;;;8.65;4.28;;;;;;;;;;4771608;29;20027;-86
2022/04/28 07:17:49;;;;;;;8.80;4.10;;;;;;;;;;4767380;29;20065;-81
2022/04/28 07:20:15;;;;;;;10.30;4.40;;;;;;;;;;4789733;29;20542;-81
2022/04/28 07:22:40;;;;;;;7.03;3.70;;;;;;;;;;4770433;29;20074;-81
2022/04/28 07:25:06;;;;;;;9.40;4.47;;;;;;;;;;4790293;29;20470;-80
2022/04/28 07:27:31;;;;;;;7.85;3.88;;;;;;;;;;4787125;29;20050;-81
2022/04/28 07:29:57;;;;;;;8.98;4.25;;;;;;;;;;4789543;29;20035;-81
2022/04/28 07:32:22;;;;;;;7.70;4.03;;;;;;;;;;4785216;29;20071;-86
2022/04/28 07:34:47;;;;;;;6.55;3.90;;;;;;;;;;4777278;29;20106;-78
2022/04/28 07:37:13;;;;;;;7.32;3.50;;;;;;;;;;4789162;29;20504;-87
2022/04/28 07:39:38;;;;;;;6.82;3.95;;;;;;;;;;4796595;29;20087;-78
2022/04/28 07:42:03;;;;;;;7.45;3.40;;;;;;;;;;4792496;29;20030;-78
2022/04/28 07:44:29;;;;;;;8.25;3.65;;;;;;;;;;4790634;29;20038;-87
2022/04/28 07:46:56;;;;;;;6.57;3.35;;;;;;;;;;4795126;29;20038;-86
2022/04/28 07:49:21;;;;;;;12.93;3.55;;;;;;;;;;4808337;29;20038;-84
2022/04/28 07:51:47;;;;;;;8.10;3.40;;;;;;;;;;4786249;29;20046;-82
2022/04/28 07:54:12;;;;;;;7.80;3.50;;;;;;;;;;4806903;29;20031;-82
2022/04/28 07:56:38;;;;;;;8.20;3.97;;;;;;;;;;4801794;29;20081;-83
2022/04/28 07:59:03;;;;;;;8.13;3.83;;;;;;;;;;4784208;29;20037;-87
2022/04/28 08:01:31;;;;;;;6.55;3.35;;;;;;;;;;4804458;29;20031;-80
2022/04/28 08:03:56;;;;;;;7.05;3.70;;;;;;;;;;4805915;29;20090;-79
2022/04/28 08:06:23;;;;;;;6.65;3.33;;;;;;;;;;4808043;29;20070;-80
2022/04/28 08:08:48;;;;;;;6.20;3.78;;;;;;;;;;4790477;29;20041;-88
2022/04/28 08:11:13;;;;;;;9.32;3.80;;;;;;;;;;4803052;29;20038;-83
2022/04/28 08:13:39;;;;;;;8.38;3.78;;;;;;;;;;4804183;29;20046;-79
2022/04/28 08:16:04;;;;;;;7.95;4.10;;;;;;;;;;4802623;29;20041;-82
2022/04/28 08:18:30;;;;;;;8.85;3.55;;;;;;;;;;4804627;29;20043;-81
2022/04/28 08:20:56;;;;;;;7.70;3.22;;;;;;;;;;4794171;29;20026;-85
2022/04/28 08:23:22;;;;;;;7.43;3.55;;;;;;;;;;4811264;29;20117;-79
2022/04/28 08:25:48;;;;;;;8.07;3.58;;;;;;;;;;4798413;29;20451;-83
2022/04/28 08:28:13;;;;;;;8.52;3.28;;;;;;;;;;4798412;29;20114;-79
2022/04/28 08:30:39;;;;;;;6.40;3.58;;;;;;;;;;4788123;29;20119;-81
2022/04/28 08:33:05;;;;;;;9.55;3.97;;;;;;;;;;4786841;29;20039;-80
2022/04/28 08:35:31;;;;;;;6.32;3.53;;;;;;;;;;4800165;29;20035;-79
2022/04/28 08:37:57;;;;;;;9.32;3.58;;;;;;;;;;4799406;29;20126;-81
2022/04/28 08:40:23;;;;;;;6.00;3.15;;;;;;;;;;4791841;29;20051;-82
2022/04/28 08:42:49;;;;;;;6.25;3.20;;;;;;;;;;4803840;29;20037;-81
2022/04/28 08:45:18;;;;;;;6.38;3.00;;;;;;;;;;4800132;29;20031;-88
2022/04/28 08:47:47;;;;;;;7.30;3.40;;;;;;;;;;4797520;29;20038;-88
2022/04/28 08:50:12;;;;;;;9.07;3.28;;;;;;;;;;4798653;29;20046;-88
2022/04/28 08:52:37;;;;;;;8.25;3.50;;;;;;;;;;4807988;29;20034;-88
2022/04/28 08:55:03;;;;;;;8.45;3.92;;;;;;;;;;4785497;29;20076;-81
2022/04/28 08:57:31;;;;;;;6.95;3.00;;;;;;;;;;4800903;29;20054;-81
2022/04/28 08:59:56;;;;;;;7.47;3.92;;;;;;;;;;4811645;29;20081;-87
2022/04/28 09:02:23;;;;;;;5.82;3.03;;;;;;;;;;4798803;29;20043;-82
2022/04/28 09:04:48;;;;;;;6.78;3.42;;;;;;;;;;4778899;29;20027;-80
2022/04/28 09:07:14;;;;;;;8.02;3.72;;;;;;;;;;4774925;29;20466;-80
2022/04/28 09:09:39;;;;;;;7.53;3.35;;;;;;;;;;4787505;29;20112;-83
2022/04/28 09:12:06;;;;;;;8.38;3.40;;;;;;;;;;4795367;29;20059;-79
2022/04/28 09:14:32;;;;;;;4.20;2.67;;;;;;;;;;4783308;29;20039;-79
2022/04/28 09:17:03;;;;;;;7.32;3.22;;;;;;;;;;4799506;29;20038;-80
2022/04/28 09:19:34;;;;;;;9.15;3.33;;;;;;;;;;4798378;29;20566;-84
2022/04/28 09:22:09;;;;;;;7.30;3.72;;;;;;;;;;4797476;29;20030;-81
2022/04/28 09:24:36;;;;;;;7.75;3.60;;;;;;;;;;4796211;29;20103;-83
2022/04/28 09:27:05;;;;;;;9.57;3.60;;;;;;;;;;4794736;29;20089;-81
2022/04/28 09:29:36;;;;;;;7.22;3.33;;;;;;;;;;4791556;29;20673;-81
2022/04/28 09:32:06;;;;;;;6.63;3.33;;;;;;;;;;4808563;29;20665;-84
2022/04/28 09:34:31;;;;;;;6.45;3.20;;;;;;;;;;4796758;29;20033;-81
2022/04/28 09:36:58;;;;;;;7.43;3.45;;;;;;;;;;4796430;29;20117;-79
2022/04/28 09:42:29;;;;;;;6.25;3.47;;;;;;;;;;4797047;29;20123;-82
2022/04/28 09:44:57;;;;;;;7.35;3.20;;;;;;;;;;4775070;29;20038;-81
2022/04/28 09:47:23;;;;;;;5.43;3.45;;;;;;;;;;4778697;29;20031;-81
2022/04/28 09:49:52;;;;;;;7.35;3.30;;;;;;;;;;4797014;29;20042;-82
2022/04/28 09:52:31;;;;;;;7.35;3.78;;;;;;;;;;4802032;29;20045;-83
2022/04/28 09:54:59;;;;;;;6.10;3.40;;;;;;;;;;4777711;29;20086;-81
2022/04/28 09:57:25;;;;;;;7.20;3.65;;;;;;;;;;4788895;29;20062;-80
2022/04/28 09:59:55;;;;;;;6.00;3.35;;;;;;;;;;4792707;29;20118;-81
2022/04/28 10:02:22;;;;;;;8.10;3.95;;;;;;;;;;4802883;29;20145;-79
2022/04/28 10:04:49;;;;;;;6.75;3.50;;;;;;;;;;4798524;29;20083;-81
2022/04/28 10:07:15;;;;;;;6.05;3.65;;;;;;;;;;4810335;29;20038;-80
2022/04/28 10:09:42;;;;;;;7.65;4.35;;;;;;;;;;4792121;29;20035;-83
2022/04/28 10:12:09;;;;;;;6.32;3.97;;;;;;;;;;4798712;29;20077;-82
2022/04/28 10:14:39;;;;;;;8.85;3.78;;;;;;;;;;4795877;29;20038;-83
2022/04/28 10:17:06;;;;;;;7.38;3.95;;;;;;;;;;4802434;29;20481;-83
2022/04/28 10:19:35;;;;;;;9.07;3.80;;;;;;;;;;4793356;29;20123;-81
2022/04/28 10:22:08;;;;;;;8.23;3.83;;;;;;;;;;4794019;29;20673;-81
2022/04/28 10:33:02;;;;;;;6.28;3.92;;;;;;;;;;4798902;29;20837;-82
2022/04/28 10:35:36;;;;;;;7.57;3.90;;;;;;;;;;4796993;29;20142;-80
2022/04/28 10:38:10;;;;;;;7.45;3.92;;;;;;;;;;4794527;29;20035;-81
2022/04/28 10:40:44;;;;;;;7.18;3.80;;;;;;;;;;4803093;29;20057;-80
2022/04/28 10:43:24;;;;;;;8.88;3.83;;;;;;;;;;4799160;29;20424;-83
2022/04/28 10:45:52;;;;;;;7.80;4.18;;;;;;;;;;4803451;29;20094;-80
2022/04/28 10:48:30;;;;;;;9.05;4.43;;;;;;;;;;4784738;29;20041;-82
2022/04/28 10:51:22;;;;;;;7.57;4.15;;;;;;;;;;4801321;29;20035;-82
2022/04/28 10:54:10;;;;;;;7.32;3.97;;;;;;;;;;4794020;29;20041;-83
2022/04/28 10:56:41;;;;;;;7.00;3.95;;;;;;;;;;4794391;29;20071;-82
2022/04/28 10:59:25;;;;;;;7.10;3.72;;;;;;;;;;4786226;29;20076;-82
2022/04/28 11:01:51;;;;;;;7.00;3.90;;;;;;;;;;4775273;29;20035;-80
2022/04/28 11:04:21;;;;;;;6.88;4.13;;;;;;;;;;4774938;29;20116;-81
2022/04/28 11:06:52;;;;;;;9.25;4.72;;;;;;;;;;4798397;29;20073;-81
2022/04/28 11:09:31;;;;;;;6.10;3.92;;;;;;;;;;4778741;29;20047;-79
2022/04/28 11:12:26;;;;;;;8.52;4.40;;;;;;;;;;4786812;29;20030;-80
2022/04/28 11:15:02;;;;;;;6.78;4.43;;;;;;;;;;4786434;29;20654;-79
2022/04/28 11:17:32;;;;;;;7.65;4.13;;;;;;;;;;4794495;29;20150;-81
2022/04/28 11:20:06;;;;;;;5.70;3.97;;;;;;;;;;4783248;29;20031;-81
2022/04/28 11:22:32;;;;;;;8.93;5.32;;;;;;;;;;4792650;29;20509;-81
2022/04/28 11:24:57;;;;;;;7.18;4.55;;;;;;;;;;4797965;29;20516;-82
2022/04/28 11:27:24;;;;;;;9.65;4.63;;;;;;;;;;4787125;29;20161;-80
2022/04/28 11:29:51;;;;;;;8.10;3.97;;;;;;;;;;4793991;29;20058;-80
2022/04/28 11:32:17;;;;;;;9.35;4.57;;;;;;;;;;4799134;29;20027;-82
2022/04/28 11:34:44;;;;;;;8.10;4.50;;;;;;;;;;4798217;29;20096;-82
2022/04/28 11:37:18;;;;;;;8.63;4.60;;;;;;;;;;4802943;29;20065;-81
2022/04/28 11:39:47;;;;;;;10.13;4.53;;;;;;;;;;4803691;29;20121;-81
2022/04/28 11:42:16;;;;;;;7.47;4.43;;;;;;;;;;4779323;29;20451;-84
2022/04/28 11:44:46;;;;;;;8.07;4.55;;;;;;;;;;4801941;29;20034;-81
2022/04/28 11:47:11;;;;;;;9.75;4.18;;;;;;;;;;4796463;29;20059;-80
2022/04/28 11:49:40;;;;;;;8.27;4.50;;;;;;;;;;4800303;29;20441;-82
2022/04/28 11:52:20;;;;;;;7.22;4.45;;;;;;;;;;4783694;29;20076;-81
2022/04/28 11:54:59;;;;;;;8.13;4.60;;;;;;;;;;4795002;29;20039;-81
2022/04/28 11:57:25;;;;;;;9.50;4.82;;;;;;;;;;4783392;29;20058;-82
2022/04/28 11:59:51;;;;;;;9.50;4.53;;;;;;;;;;4782329;29;20035;-82
2022/04/28 12:02:32;;;;;;;7.57;4.22;;;;;;;;;;4801070;29;20042;-81
2022/04/28 12:05:15;;;;;;;8.70;4.38;;;;;;;;;;4789559;29;20059;-82
2022/04/28 12:07:43;;;;;;;7.03;4.22;;;;;;;;;;4785479;29;20069;-82
2022/04/28 12:15:51;;;;;;;7.32;4.40;;;;;;;;;;4792966;29;20047;-82
2022/04/28 12:21:02;;;;;;;6.65;3.75;;;;;;;;;;4798610;29;21744;-81
2022/04/28 12:23:33;;;;;;;6.35;3.63;;;;;;;;;;4802013;29;20155;-82
2022/04/28 12:26:00;;;;;;;8.00;3.90;;;;;;;;;;4792657;29;20035;-82
2022/04/28 12:28:34;;;;;;;9.25;3.70;;;;;;;;;;4793827;29;20047;-82
2022/04/28 12:31:02;;;;;;;9.43;3.75;;;;;;;;;;4797323;29;20129;-82
2022/04/28 12:33:33;;;;;;;6.97;4.05;;;;;;;;;;4792099;29;20064;-80
2022/04/28 12:36:16;;;;;;;8.90;4.22;;;;;;;;;;4796111;29;20576;-81
2022/04/28 12:38:50;;;;;;;7.43;4.25;;;;;;;;;;4792246;29;20632;-82
2022/04/28 12:41:24;;;;;;;7.68;3.58;;;;;;;;;;4801714;29;20034;-82
2022/04/28 12:43:57;;;;;;;8.48;4.25;;;;;;;;;;4798272;29;20042;-82
2022/04/28 12:46:31;;;;;;;6.60;3.65;;;;;;;;;;4780151;29;20038;-82
2022/04/28 12:48:57;;;;;;;6.50;3.58;;;;;;;;;;4783292;29;20039;-81
2022/04/28 12:51:26;;;;;;;6.68;3.80;;;;;;;;;;4800206;29;20046;-82
2022/04/28 12:54:08;;;;;;;7.40;4.00;;;;;;;;;;4780737;29;20070;-81
2022/04/28 12:56:42;;;;;;;8.18;4.40;;;;;;;;;;4799165;29;20035;-82
2022/04/28 12:59:13;;;;;;;6.70;3.92;;;;;;;;;;4793599;29;20039;-82
2022/04/28 13:01:43;;;;;;;8.60;4.63;;;;;;;;;;4794525;29;20077;-82
2022/04/28 13:04:27;;;;;;;8.10;4.43;;;;;;;;;;4794159;29;20049;-82
2022/04/28 13:07:32;;;;;;;;;;;;;;;;;;;;;
2022/04/28 13:10:07;;;;;;;7.30;4.32;;;;;;;;;;4781142;29;20055;-83
2022/04/28 13:12:42;;;;;;;9.32;4.47;;;;;;;;;;4799658;29;20608;-82
2022/04/28 13:15:13;;;;;;;10.13;4.75;;;;;;;;;;4797861;29;20062;-82
2022/04/28 13:18:05;;;;;;;9.35;4.03;;;;;;;;;;4798113;29;20098;-83
2022/04/28 13:20:39;;;;;;;8.40;4.63;;;;;;;;;;4771999;29;20095;-81
2022/04/28 13:23:11;;;;;;;8.10;4.38;;;;;;;;;;4779461;29;20034;-82
2022/04/28 13:25:42;;;;;;;7.05;4.18;;;;;;;;;;4782297;29;20035;-84
2022/04/28 13:28:15;;;;;;;10.57;4.70;;;;;;;;;;4777717;29;20183;-82
2022/04/28 13:30:41;;;;;;;8.90;4.93;;;;;;;;;;4796056;29;20147;-82
2022/04/28 13:33:06;;;;;;;7.20;4.68;;;;;;;;;;4799950;29;20541;-83
2022/04/28 13:35:32;;;;;;;9.80;4.40;;;;;;;;;;4780544;29;20047;-82
2022/04/28 13:37:57;;;;;;;7.35;4.68;;;;;;;;;;4797100;29;20031;-82
2022/04/28 13:40:23;;;;;;;8.80;4.93;;;;;;;;;;4797919;29;20055;-81
2022/04/28 13:42:48;;;;;;;6.85;4.28;;;;;;;;;;4799516;29;20046;-84
2022/04/28 13:45:17;;;;;;;8.52;4.60;;;;;;;;;;4793762;29;20055;-83
2022/04/28 13:47:45;;;;;;;11.43;4.80;;;;;;;;;;4776992;29;20291;-82
2022/04/28 13:50:13;;;;;;;6.82;4.50;;;;;;;;;;4784434;29;20045;-82
2022/04/28 13:52:47;;;;;;;6.07;4.00;;;;;;;;;;4796760;29;20045;-83
2022/04/28 13:55:19;;;;;;;6.97;3.70;;;;;;;;;;4784920;29;20541;-84
2022/04/28 13:57:50;;;;;;;10.73;5.18;;;;;;;;;;4793192;29;20496;-83
2022/04/28 14:00:19;;;;;;;7.22;3.70;;;;;;;;;;4798464;29;20494;-83
2022/04/28 14:02:53;;;;;;;7.35;4.40;;;;;;;;;;4796199;29;20568;-83
2022/04/28 14:05:26;;;;;;;8.70;3.97;;;;;;;;;;4798828;29;20153;-82
2022/04/28 14:07:51;;;;;;;;;;;;;;;;;;4793241;29;20043;-81
2022/04/28 14:10:23;;;;;;;7.70;4.32;;;;;;;;;;4776938;29;19922;-82
2022/04/28 14:12:51;;;;;;;9.40;4.28;;;;;;;;;;4792704;29;20033;-79
2022/04/28 14:15:18;;;;;;;8.10;4.00;;;;;;;;;;4799933;29;20095;-82
2022/04/28 14:17:46;;;;;;;7.38;4.50;;;;;;;;;;4794740;29;20438;-83
2022/04/28 14:20:12;;;;;;;7.05;4.55;;;;;;;;;;4784203;29;20030;-81
2022/04/28 14:22:42;;;;;;;7.68;4.22;;;;;;;;;;4798492;29;20054;-83
2022/04/28 14:25:08;;;;;;;7.80;3.90;;;;;;;;;;4792937;29;20410;-80
2022/04/28 14:27:37;;;;;;;8.48;4.18;;;;;;;;;;4799831;29;20048;-82
2022/04/28 14:30:07;;;;;;;8.13;4.03;;;;;;;;;;4781278;29;20039;-80
2022/04/28 14:32:39;;;;;;;10.15;4.53;;;;;;;;;;4793708;29;20039;-82
2022/04/28 14:35:09;;;;;;;7.43;4.47;;;;;;;;;;4794392;29;20054;-79
2022/04/28 14:37:37;;;;;;;5.47;4.15;;;;;;;;;;4797500;29;20402;-82
2022/04/28 14:40:06;;;;;;;6.78;4.65;;;;;;;;;;4792975;29;20079;-80
2022/04/28 14:42:32;;;;;;;8.30;4.45;;;;;;;;;;4779556;29;20063;-82
2022/04/28 14:44:57;;;;;;;9.73;5.28;;;;;;;;;;4794733;29;20034;-82
2022/04/28 14:47:26;;;;;;;9.20;5.03;;;;;;;;;;4794695;29;20134;-83
2022/04/28 14:52:37;;;;;;;7.32;4.45;;;;;;;;;;4794606;29;20110;-83
2022/04/28 14:55:05;;;;;;;7.05;4.32;;;;;;;;;;4791057;29;20095;-82
2022/04/28 14:57:34;;;;;;;7.78;5.00;;;;;;;;;;4799453;29;20035;-83
2022/04/28 15:00:00;;;;;;;6.07;4.10;;;;;;;;;;4774595;29;20034;-82
2022/04/28 15:02:26;;;;;;;7.80;4.72;;;;;;;;;;4792360;29;20549;-80
2022/04/28 15:04:52;;;;;;;6.22;4.47;;;;;;;;;;4793939;29;20030;-83
2022/04/28 15:07:18;;;;;;;7.55;4.32;;;;;;;;;;4778340;29;20043;-82
2022/04/28 15:09:45;;;;;;;7.72;4.15;;;;;;;;;;4794560;29;20061;-82
2022/04/28 15:12:11;;;;;;;7.38;3.83;;;;;;;;;;4779787;29;20039;-82
2022/04/28 15:14:38;;;;;;;6.03;3.95;;;;;;;;;;4780865;29;20455;-81
2022/04/28 15:17:05;;;;;;;8.90;3.78;;;;;;;;;;4796493;29;20058;-83
2022/04/28 15:19:31;;;;;;;6.25;4.22;;;;;;;;;;4797970;29;20105;-83
2022/04/28 15:21:57;;;;;;;7.22;3.95;;;;;;;;;;4794721;29;20133;-82
2022/04/28 15:24:23;;;;;;;7.97;4.22;;;;;;;;;;4795503;29;20766;-82
2022/04/28 15:26:53;;;;;;;6.43;4.00;;;;;;;;;;4783715;29;20422;-82